sensor_id;sensor_type;location;lat;lon;timestamp;P1;durP1;ratioP1;P2;durP2;ratioP2
25187;SDS011;13141;50.414;8.050;2022-07-29T00:01:05;0.10;;;0.10;;
25187;SDS011;13141;50.414;8.050;2022-07-29T00:03:31;0.10;;;0.10;;
25187;SDS011;13141;50.414;8.050;2022-07-29T00:05:56;0.10;;;0.10;;
25187;SDS011;13141;50.414;8.050;2022-07-29T00:08:22;0.15;;;0.15;;
25187;SDS011;13141;50.414;8.050;2022-07-29T00:10:47;0.10;;;0.10;;
25187;SDS011;13141;50.414;8.050;2022-07-29T00:13:13;0.10;;;0.10;;
25187;SDS011;13141;50.414;8.050;2022-07-29T00:15:39;0.22;;;0.22;;
25187;SDS011;13141;50.414;8.050;2022-07-29T00:18:04;0.10;;;0.10;;
25187;SDS011;13141;50.414;8.050;2022-07-29T00:20:30;0.10;;;0.10;;
25187;SDS011;13141;50.414;8.050;2022-07-29T00:22:55;0.10;;;0.10;;
25187;SDS011;13141;50.414;8.050;2022-07-29T00:25:21;0.20;;;0.20;;
25187;SDS011;13141;50.414;8.050;2022-07-29T00:27:47;0.17;;;0.17;;
25187;SDS011;13141;50.414;8.050;2022-07-29T00:30:12;0.20;;;0.20;;
25187;SDS011;13141;50.414;8.050;2022-07-29T00:32:38;0.20;;;0.20;;
25187;SDS011;13141;50.414;8.050;2022-07-29T00:35:04;0.10;;;0.10;;
25187;SDS011;13141;50.414;8.050;2022-07-29T00:37:49;0.10;;;0.10;;
25187;SDS011;13141;50.414;8.050;2022-07-29T00:40:14;0.10;;;0.10;;
25187;SDS011;13141;50.414;8.050;2022-07-29T00:42:47;0.10;;;0.10;;
25187;SDS011;13141;50.414;8.050;2022-07-29T00:45:14;0.17;;;0.17;;
25187;SDS011;13141;50.414;8.050;2022-07-29T00:47:40;0.10;;;0.10;;
25187;SDS011;13141;50.414;8.050;2022-07-29T00:50:07;0.20;;;0.20;;
25187;SDS011;13141;50.414;8.050;2022-07-29T00:52:38;0.10;;;0.10;;
25187;SDS011;13141;50.414;8.050;2022-07-29T00:55:06;0.20;;;0.20;;
25187;SDS011;13141;50.414;8.050;2022-07-29T00:57:35;0.20;;;0.20;;
25187;SDS011;13141;50.414;8.050;2022-07-29T01:00:02;0.17;;;0.17;;
25187;SDS011;13141;50.414;8.050;2022-07-29T01:02:29;0.10;;;0.10;;
25187;SDS011;13141;50.414;8.050;2022-07-29T01:04:54;0.10;;;0.10;;
25187;SDS011;13141;50.414;8.050;2022-07-29T01:07:22;0.20;;;0.20;;
25187;SDS011;13141;50.414;8.050;2022-07-29T01:09:49;0.10;;;0.10;;
25187;SDS011;13141;50.414;8.050;2022-07-29T01:12:21;0.10;;;0.10;;
25187;SDS011;13141;50.414;8.050;2022-07-29T01:14:51;0.20;;;0.20;;
25187;SDS011;13141;50.414;8.050;2022-07-29T01:23:11;0.10;;;0.10;;
25187;SDS011;13141;50.414;8.050;2022-07-29T01:31:06;0.20;;;0.20;;
25187;SDS011;13141;50.414;8.050;2022-07-29T01:33:36;0.10;;;0.10;;
25187;SDS011;13141;50.414;8.050;2022-07-29T01:36:25;0.13;;;0.13;;
25187;SDS011;13141;50.414;8.050;2022-07-29T01:38:54;0.10;;;0.10;;
25187;SDS011;13141;50.414;8.050;2022-07-29T01:41:35;0.10;;;0.10;;
25187;SDS011;13141;50.414;8.050;2022-07-29T01:44:10;0.10;;;0.10;;
25187;SDS011;13141;50.414;8.050;2022-07-29T01:46:40;0.10;;;0.10;;
25187;SDS011;13141;50.414;8.050;2022-07-29T01:49:16;0.10;;;0.10;;
25187;SDS011;13141;50.414;8.050;2022-07-29T01:54:30;0.10;;;0.10;;
25187;SDS011;13141;50.414;8.050;2022-07-29T01:57:00;0.17;;;0.17;;
25187;SDS011;13141;50.414;8.050;2022-07-29T01:59:28;0.10;;;0.10;;
25187;SDS011;13141;50.414;8.050;2022-07-29T02:01:57;0.20;;;0.20;;
25187;SDS011;13141;50.414;8.050;2022-07-29T02:04:23;0.10;;;0.10;;
25187;SDS011;13141;50.414;8.050;2022-07-29T02:06:50;0.10;;;0.10;;
25187;SDS011;13141;50.414;8.050;2022-07-29T02:09:19;0.10;;;0.10;;
25187;SDS011;13141;50.414;8.050;2022-07-29T02:11:51;0.15;;;0.15;;
25187;SDS011;13141;50.414;8.050;2022-07-29T02:14:18;0.10;;;0.10;;
25187;SDS011;13141;50.414;8.050;2022-07-29T02:16:47;0.15;;;0.15;;
25187;SDS011;13141;50.414;8.050;2022-07-29T02:19:17;0.20;;;0.20;;
25187;SDS011;13141;50.414;8.050;2022-07-29T02:21:44;0.20;;;0.20;;
25187;SDS011;13141;50.414;8.050;2022-07-29T02:24:11;0.10;;;0.10;;
25187;SDS011;13141;50.414;8.050;2022-07-29T02:26:39;0.10;;;0.10;;
25187;SDS011;13141;50.414;8.050;2022-07-29T02:29:06;0.10;;;0.10;;
25187;SDS011;13141;50.414;8.050;2022-07-29T02:31:33;0.10;;;0.10;;
25187;SDS011;13141;50.414;8.050;2022-07-29T02:34:05;0.10;;;0.10;;
25187;SDS011;13141;50.414;8.050;2022-07-29T02:36:33;0.20;;;0.20;;
25187;SDS011;13141;50.414;8.050;2022-07-29T02:39:00;0.10;;;0.10;;
25187;SDS011;13141;50.414;8.050;2022-07-29T02:41:30;0.15;;;0.15;;
25187;SDS011;13141;50.414;8.050;2022-07-29T02:44:03;0.20;;;0.20;;
25187;SDS011;13141;50.414;8.050;2022-07-29T02:46:34;0.10;;;0.10;;
25187;SDS011;13141;50.414;8.050;2022-07-29T02:49:04;0.10;;;0.10;;
25187;SDS011;13141;50.414;8.050;2022-07-29T02:51:42;0.10;;;0.10;;
25187;SDS011;13141;50.414;8.050;2022-07-29T02:54:10;0.20;;;0.20;;
25187;SDS011;13141;50.414;8.050;2022-07-29T02:56:42;0.20;;;0.20;;
25187;SDS011;13141;50.414;8.050;2022-07-29T02:59:10;0.10;;;0.10;;
25187;SDS011;13141;50.414;8.050;2022-07-29T03:01:38;0.10;;;0.10;;
25187;SDS011;13141;50.414;8.050;2022-07-29T03:04:06;0.10;;;0.10;;
25187;SDS011;13141;50.414;8.050;2022-07-29T03:06:34;0.10;;;0.10;;
25187;SDS011;13141;50.414;8.050;2022-07-29T03:09:02;0.10;;;0.10;;
25187;SDS011;13141;50.414;8.050;2022-07-29T03:11:28;0.10;;;0.10;;
25187;SDS011;13141;50.414;8.050;2022-07-29T03:13:54;0.10;;;0.10;;
25187;SDS011;13141;50.414;8.050;2022-07-29T03:16:20;0.10;;;0.10;;
25187;SDS011;13141;50.414;8.050;2022-07-29T03:18:48;0.10;;;0.10;;
25187;SDS011;13141;50.414;8.050;2022-07-29T03:21:14;0.10;;;0.10;;
25187;SDS011;13141;50.414;8.050;2022-07-29T03:23:43;0.10;;;0.10;;
25187;SDS011;13141;50.414;8.050;2022-07-29T03:26:10;0.10;;;0.10;;
25187;SDS011;13141;50.414;8.050;2022-07-29T03:28:35;0.10;;;0.10;;
25187;SDS011;13141;50.414;8.050;2022-07-29T03:31:01;0.20;;;0.20;;
25187;SDS011;13141;50.414;8.050;2022-07-29T03:33:27;0.10;;;0.10;;
25187;SDS011;13141;50.414;8.050;2022-07-29T03:35:53;0.17;;;0.17;;
25187;SDS011;13141;50.414;8.050;2022-07-29T03:38:19;0.10;;;0.10;;
25187;SDS011;13141;50.414;8.050;2022-07-29T03:40:49;0.10;;;0.10;;
25187;SDS011;13141;50.414;8.050;2022-07-29T03:43:19;0.10;;;0.10;;
25187;SDS011;13141;50.414;8.050;2022-07-29T03:45:46;0.10;;;0.10;;
25187;SDS011;13141;50.414;8.050;2022-07-29T03:48:15;0.10;;;0.10;;
25187;SDS011;13141;50.414;8.050;2022-07-29T03:50:44;0.10;;;0.10;;
25187;SDS011;13141;50.414;8.050;2022-07-29T03:53:10;0.10;;;0.10;;
25187;SDS011;13141;50.414;8.050;2022-07-29T03:55:37;0.10;;;0.10;;
25187;SDS011;13141;50.414;8.050;2022-07-29T03:58:06;0.20;;;0.20;;
25187;SDS011;13141;50.414;8.050;2022-07-29T04:00:33;0.10;;;0.10;;
25187;SDS011;13141;50.414;8.050;2022-07-29T04:03:00;0.10;;;0.10;;
25187;SDS011;13141;50.414;8.050;2022-07-29T04:05:28;0.20;;;0.20;;
25187;SDS011;13141;50.414;8.050;2022-07-29T04:07:54;0.10;;;0.10;;
25187;SDS011;13141;50.414;8.050;2022-07-29T04:10:19;0.15;;;0.15;;
25187;SDS011;13141;50.414;8.050;2022-07-29T04:12:45;0.10;;;0.10;;
25187;SDS011;13141;50.414;8.050;2022-07-29T04:15:10;0.15;;;0.15;;
25187;SDS011;13141;50.414;8.050;2022-07-29T04:17:36;0.10;;;0.10;;
25187;SDS011;13141;50.414;8.050;2022-07-29T04:20:02;0.10;;;0.10;;
25187;SDS011;13141;50.414;8.050;2022-07-29T04:22:29;0.10;;;0.10;;
25187;SDS011;13141;50.414;8.050;2022-07-29T04:24:54;0.10;;;0.10;;
25187;SDS011;13141;50.414;8.050;2022-07-29T04:27:20;0.10;;;0.10;;
25187;SDS011;13141;50.414;8.050;2022-07-29T04:29:45;0.10;;;0.10;;
25187;SDS011;13141;50.414;8.050;2022-07-29T04:32:11;0.10;;;0.10;;
25187;SDS011;13141;50.414;8.050;2022-07-29T04:34:37;0.20;;;0.20;;
25187;SDS011;13141;50.414;8.050;2022-07-29T04:37:02;0.10;;;0.10;;
25187;SDS011;13141;50.414;8.050;2022-07-29T04:39:28;0.10;;;0.10;;
25187;SDS011;13141;50.414;8.050;2022-07-29T04:41:53;0.15;;;0.15;;
25187;SDS011;13141;50.414;8.050;2022-07-29T04:44:19;0.10;;;0.10;;
25187;SDS011;13141;50.414;8.050;2022-07-29T04:46:44;0.13;;;0.13;;
25187;SDS011;13141;50.414;8.050;2022-07-29T04:49:10;0.10;;;0.10;;
25187;SDS011;13141;50.414;8.050;2022-07-29T04:51:35;0.13;;;0.13;;
25187;SDS011;13141;50.414;8.050;2022-07-29T04:54:01;0.10;;;0.10;;
25187;SDS011;13141;50.414;8.050;2022-07-29T04:56:27;0.10;;;0.10;;
25187;SDS011;13141;50.414;8.050;2022-07-29T04:58:52;0.10;;;0.10;;
25187;SDS011;13141;50.414;8.050;2022-07-29T05:01:19;0.10;;;0.10;;
25187;SDS011;13141;50.414;8.050;2022-07-29T05:03:45;0.10;;;0.10;;
25187;SDS011;13141;50.414;8.050;2022-07-29T05:06:11;0.20;;;0.20;;
25187;SDS011;13141;50.414;8.050;2022-07-29T05:08:36;0.10;;;0.10;;
25187;SDS011;13141;50.414;8.050;2022-07-29T05:11:02;0.10;;;0.10;;
25187;SDS011;13141;50.414;8.050;2022-07-29T05:13:28;0.10;;;0.10;;
25187;SDS011;13141;50.414;8.050;2022-07-29T05:15:54;0.10;;;0.10;;
25187;SDS011;13141;50.414;8.050;2022-07-29T05:18:20;0.17;;;0.17;;
25187;SDS011;13141;50.414;8.050;2022-07-29T05:20:46;0.15;;;0.15;;
25187;SDS011;13141;50.414;8.050;2022-07-29T05:23:11;0.10;;;0.10;;
25187;SDS011;13141;50.414;8.050;2022-07-29T05:25:40;0.10;;;0.10;;
25187;SDS011;13141;50.414;8.050;2022-07-29T05:28:06;0.17;;;0.17;;
25187;SDS011;13141;50.414;8.050;2022-07-29T05:30:31;0.10;;;0.10;;
25187;SDS011;13141;50.414;8.050;2022-07-29T05:32:57;0.10;;;0.10;;
25187;SDS011;13141;50.414;8.050;2022-07-29T05:35:23;0.10;;;0.10;;
25187;SDS011;13141;50.414;8.050;2022-07-29T05:37:48;0.10;;;0.10;;
25187;SDS011;13141;50.414;8.050;2022-07-29T05:40:14;0.10;;;0.10;;
25187;SDS011;13141;50.414;8.050;2022-07-29T05:42:39;0.10;;;0.10;;
25187;SDS011;13141;50.414;8.050;2022-07-29T05:45:05;0.20;;;0.20;;
25187;SDS011;13141;50.414;8.050;2022-07-29T05:47:31;0.10;;;0.10;;
25187;SDS011;13141;50.414;8.050;2022-07-29T05:49:56;0.10;;;0.10;;
25187;SDS011;13141;50.414;8.050;2022-07-29T05:52:22;0.20;;;0.20;;
25187;SDS011;13141;50.414;8.050;2022-07-29T05:54:48;0.20;;;0.20;;
25187;SDS011;13141;50.414;8.050;2022-07-29T05:57:20;0.10;;;0.10;;
25187;SDS011;13141;50.414;8.050;2022-07-29T05:59:47;0.10;;;0.10;;
25187;SDS011;13141;50.414;8.050;2022-07-29T06:02:14;0.10;;;0.10;;
25187;SDS011;13141;50.414;8.050;2022-07-29T06:04:40;0.10;;;0.10;;
25187;SDS011;13141;50.414;8.050;2022-07-29T06:07:06;0.10;;;0.10;;
25187;SDS011;13141;50.414;8.050;2022-07-29T06:09:31;0.20;;;0.20;;
25187;SDS011;13141;50.414;8.050;2022-07-29T06:11:57;0.10;;;0.10;;
25187;SDS011;13141;50.414;8.050;2022-07-29T06:14:23;0.10;;;0.10;;
25187;SDS011;13141;50.414;8.050;2022-07-29T06:16:50;0.10;;;0.10;;
25187;SDS011;13141;50.414;8.050;2022-07-29T06:19:15;0.10;;;0.10;;
25187;SDS011;13141;50.414;8.050;2022-07-29T06:21:41;0.20;;;0.20;;
25187;SDS011;13141;50.414;8.050;2022-07-29T06:24:08;0.10;;;0.10;;
25187;SDS011;13141;50.414;8.050;2022-07-29T06:26:35;0.13;;;0.13;;
25187;SDS011;13141;50.414;8.050;2022-07-29T06:29:01;0.10;;;0.10;;
25187;SDS011;13141;50.414;8.050;2022-07-29T06:31:26;0.20;;;0.20;;
25187;SDS011;13141;50.414;8.050;2022-07-29T06:33:52;0.17;;;0.17;;
25187;SDS011;13141;50.414;8.050;2022-07-29T06:36:17;0.10;;;0.10;;
25187;SDS011;13141;50.414;8.050;2022-07-29T06:38:43;0.20;;;0.20;;
25187;SDS011;13141;50.414;8.050;2022-07-29T06:41:09;0.15;;;0.15;;
25187;SDS011;13141;50.414;8.050;2022-07-29T06:43:38;0.10;;;0.10;;
25187;SDS011;13141;50.414;8.050;2022-07-29T06:46:10;0.10;;;0.10;;
25187;SDS011;13141;50.414;8.050;2022-07-29T06:48:37;0.10;;;0.10;;
25187;SDS011;13141;50.414;8.050;2022-07-29T06:51:04;0.10;;;0.10;;
25187;SDS011;13141;50.414;8.050;2022-07-29T06:53:30;0.20;;;0.20;;
25187;SDS011;13141;50.414;8.050;2022-07-29T06:55:57;0.10;;;0.10;;
25187;SDS011;13141;50.414;8.050;2022-07-29T06:58:25;0.10;;;0.10;;
25187;SDS011;13141;50.414;8.050;2022-07-29T07:00:51;0.10;;;0.10;;
25187;SDS011;13141;50.414;8.050;2022-07-29T07:03:17;0.10;;;0.10;;
25187;SDS011;13141;50.414;8.050;2022-07-29T07:05:43;0.10;;;0.10;;
25187;SDS011;13141;50.414;8.050;2022-07-29T07:08:10;0.10;;;0.10;;
25187;SDS011;13141;50.414;8.050;2022-07-29T07:10:36;0.10;;;0.10;;
25187;SDS011;13141;50.414;8.050;2022-07-29T07:13:02;0.10;;;0.10;;
25187;SDS011;13141;50.414;8.050;2022-07-29T07:15:29;0.10;;;0.10;;
25187;SDS011;13141;50.414;8.050;2022-07-29T07:17:55;0.17;;;0.17;;
25187;SDS011;13141;50.414;8.050;2022-07-29T07:20:20;0.13;;;0.13;;
25187;SDS011;13141;50.414;8.050;2022-07-29T07:22:46;0.17;;;0.17;;
25187;SDS011;13141;50.414;8.050;2022-07-29T07:25:12;0.10;;;0.10;;
25187;SDS011;13141;50.414;8.050;2022-07-29T07:27:38;0.10;;;0.10;;
25187;SDS011;13141;50.414;8.050;2022-07-29T07:30:04;0.10;;;0.10;;
25187;SDS011;13141;50.414;8.050;2022-07-29T07:32:32;0.10;;;0.10;;
25187;SDS011;13141;50.414;8.050;2022-07-29T07:34:58;0.10;;;0.10;;
25187;SDS011;13141;50.414;8.050;2022-07-29T07:37:24;0.10;;;0.10;;
25187;SDS011;13141;50.414;8.050;2022-07-29T07:39:50;0.10;;;0.10;;
25187;SDS011;13141;50.414;8.050;2022-07-29T07:42:18;0.20;;;0.20;;
25187;SDS011;13141;50.414;8.050;2022-07-29T07:44:44;0.10;;;0.10;;
25187;SDS011;13141;50.414;8.050;2022-07-29T07:47:11;0.10;;;0.10;;
25187;SDS011;13141;50.414;8.050;2022-07-29T07:49:37;0.25;;;0.25;;
25187;SDS011;13141;50.414;8.050;2022-07-29T07:52:03;0.17;;;0.17;;
25187;SDS011;13141;50.414;8.050;2022-07-29T07:54:29;0.10;;;0.10;;
25187;SDS011;13141;50.414;8.050;2022-07-29T07:56:55;0.10;;;0.10;;
25187;SDS011;13141;50.414;8.050;2022-07-29T07:59:21;0.10;;;0.10;;
25187;SDS011;13141;50.414;8.050;2022-07-29T08:01:47;0.20;;;0.20;;
25187;SDS011;13141;50.414;8.050;2022-07-29T08:04:12;0.10;;;0.10;;
25187;SDS011;13141;50.414;8.050;2022-07-29T08:06:38;0.20;;;0.20;;
25187;SDS011;13141;50.414;8.050;2022-07-29T08:09:04;0.17;;;0.17;;
25187;SDS011;13141;50.414;8.050;2022-07-29T08:11:30;0.10;;;0.10;;
25187;SDS011;13141;50.414;8.050;2022-07-29T08:13:55;0.20;;;0.20;;
25187;SDS011;13141;50.414;8.050;2022-07-29T08:16:21;0.10;;;0.10;;
25187;SDS011;13141;50.414;8.050;2022-07-29T08:18:47;0.15;;;0.15;;
25187;SDS011;13141;50.414;8.050;2022-07-29T08:21:14;0.10;;;0.10;;
25187;SDS011;13141;50.414;8.050;2022-07-29T08:23:40;0.15;;;0.15;;
25187;SDS011;13141;50.414;8.050;2022-07-29T08:26:17;0.10;;;0.10;;
25187;SDS011;13141;50.414;8.050;2022-07-29T08:28:43;0.15;;;0.15;;
25187;SDS011;13141;50.414;8.050;2022-07-29T08:31:11;0.17;;;0.17;;
25187;SDS011;13141;50.414;8.050;2022-07-29T08:33:37;0.20;;;0.20;;
25187;SDS011;13141;50.414;8.050;2022-07-29T08:36:03;0.15;;;0.15;;
25187;SDS011;13141;50.414;8.050;2022-07-29T08:38:29;0.20;;;0.20;;
25187;SDS011;13141;50.414;8.050;2022-07-29T08:40:55;0.10;;;0.10;;
25187;SDS011;13141;50.414;8.050;2022-07-29T08:43:20;0.20;;;0.20;;
25187;SDS011;13141;50.414;8.050;2022-07-29T08:45:47;0.20;;;0.20;;
25187;SDS011;13141;50.414;8.050;2022-07-29T08:48:14;0.20;;;0.20;;
25187;SDS011;13141;50.414;8.050;2022-07-29T08:50:41;0.10;;;0.10;;
25187;SDS011;13141;50.414;8.050;2022-07-29T08:53:12;0.13;;;0.13;;
25187;SDS011;13141;50.414;8.050;2022-07-29T08:55:44;0.10;;;0.10;;
25187;SDS011;13141;50.414;8.050;2022-07-29T08:58:11;0.10;;;0.10;;
25187;SDS011;13141;50.414;8.050;2022-07-29T09:00:41;0.15;;;0.15;;
25187;SDS011;13141;50.414;8.050;2022-07-29T09:03:08;0.17;;;0.17;;
25187;SDS011;13141;50.414;8.050;2022-07-29T09:05:36;0.20;;;0.20;;
25187;SDS011;13141;50.414;8.050;2022-07-29T09:08:02;0.20;;;0.20;;
25187;SDS011;13141;50.414;8.050;2022-07-29T09:10:29;0.20;;;0.20;;
25187;SDS011;13141;50.414;8.050;2022-07-29T09:12:56;0.20;;;0.20;;
25187;SDS011;13141;50.414;8.050;2022-07-29T09:15:22;0.20;;;0.20;;
25187;SDS011;13141;50.414;8.050;2022-07-29T09:17:48;0.17;;;0.17;;
25187;SDS011;13141;50.414;8.050;2022-07-29T09:20:21;0.20;;;0.20;;
25187;SDS011;13141;50.414;8.050;2022-07-29T09:22:48;0.20;;;0.20;;
25187;SDS011;13141;50.414;8.050;2022-07-29T09:25:34;0.20;;;0.20;;
25187;SDS011;13141;50.414;8.050;2022-07-29T09:28:08;0.20;;;0.20;;
25187;SDS011;13141;50.414;8.050;2022-07-29T09:30:34;0.20;;;0.20;;
25187;SDS011;13141;50.414;8.050;2022-07-29T09:33:02;0.13;;;0.13;;
25187;SDS011;13141;50.414;8.050;2022-07-29T09:35:28;0.10;;;0.10;;
25187;SDS011;13141;50.414;8.050;2022-07-29T09:37:55;0.15;;;0.15;;
25187;SDS011;13141;50.414;8.050;2022-07-29T09:40:25;0.20;;;0.20;;
25187;SDS011;13141;50.414;8.050;2022-07-29T09:42:52;0.30;;;0.30;;
25187;SDS011;13141;50.414;8.050;2022-07-29T09:45:28;0.20;;;0.20;;
25187;SDS011;13141;50.414;8.050;2022-07-29T09:47:55;0.20;;;0.20;;
25187;SDS011;13141;50.414;8.050;2022-07-29T09:50:38;0.20;;;0.20;;
25187;SDS011;13141;50.414;8.050;2022-07-29T09:53:05;0.20;;;0.20;;
25187;SDS011;13141;50.414;8.050;2022-07-29T09:55:30;0.20;;;0.20;;
25187;SDS011;13141;50.414;8.050;2022-07-29T10:00:46;0.20;;;0.20;;
25187;SDS011;13141;50.414;8.050;2022-07-29T10:03:13;0.20;;;0.20;;
25187;SDS011;13141;50.414;8.050;2022-07-29T10:05:40;0.10;;;0.10;;
25187;SDS011;13141;50.414;8.050;2022-07-29T10:08:07;0.20;;;0.20;;
25187;SDS011;13141;50.414;8.050;2022-07-29T10:10:34;0.20;;;0.20;;
25187;SDS011;13141;50.414;8.050;2022-07-29T10:13:03;0.20;;;0.20;;
25187;SDS011;13141;50.414;8.050;2022-07-29T10:15:31;0.20;;;0.20;;
25187;SDS011;13141;50.414;8.050;2022-07-29T10:17:58;0.28;;;0.28;;
25187;SDS011;13141;50.414;8.050;2022-07-29T10:20:25;0.20;;;0.20;;
25187;SDS011;13141;50.414;8.050;2022-07-29T10:22:53;0.20;;;0.20;;
25187;SDS011;13141;50.414;8.050;2022-07-29T10:25:19;0.20;;;0.20;;
25187;SDS011;13141;50.414;8.050;2022-07-29T10:27:45;0.30;;;0.30;;
25187;SDS011;13141;50.414;8.050;2022-07-29T10:30:14;0.20;;;0.20;;
25187;SDS011;13141;50.414;8.050;2022-07-29T10:35:31;0.30;;;0.30;;
25187;SDS011;13141;50.414;8.050;2022-07-29T10:47:46;0.30;;;0.30;;
25187;SDS011;13141;50.414;8.050;2022-07-29T10:50:06;0.20;;;0.20;;
25187;SDS011;13141;50.414;8.050;2022-07-29T10:52:51;0.30;;;0.30;;
25187;SDS011;13141;50.414;8.050;2022-07-29T10:55:34;0.30;;;0.30;;
25187;SDS011;13141;50.414;8.050;2022-07-29T10:58:24;0.30;;;0.30;;
25187;SDS011;13141;50.414;8.050;2022-07-29T11:00:50;0.30;;;0.30;;
25187;SDS011;13141;50.414;8.050;2022-07-29T11:06:09;0.20;;;0.20;;
25187;SDS011;13141;50.414;8.050;2022-07-29T11:08:35;0.30;;;0.30;;
25187;SDS011;13141;50.414;8.050;2022-07-29T11:16:13;0.20;;;0.20;;
25187;SDS011;13141;50.414;8.050;2022-07-29T11:19:18;0.20;;;0.20;;
25187;SDS011;13141;50.414;8.050;2022-07-29T11:21:44;0.30;;;0.30;;
25187;SDS011;13141;50.414;8.050;2022-07-29T11:24:15;0.30;;;0.30;;
25187;SDS011;13141;50.414;8.050;2022-07-29T11:32:20;0.30;;;0.30;;
25187;SDS011;13141;50.414;8.050;2022-07-29T11:34:47;0.30;;;0.30;;
25187;SDS011;13141;50.414;8.050;2022-07-29T11:37:14;0.30;;;0.30;;
25187;SDS011;13141;50.414;8.050;2022-07-29T11:39:43;0.30;;;0.30;;
25187;SDS011;13141;50.414;8.050;2022-07-29T11:50:30;0.28;;;0.28;;
25187;SDS011;13141;50.414;8.050;2022-07-29T11:52:58;0.30;;;0.30;;
25187;SDS011;13141;50.414;8.050;2022-07-29T11:55:25;0.40;;;0.40;;
25187;SDS011;13141;50.414;8.050;2022-07-29T11:57:55;0.30;;;0.30;;
25187;SDS011;13141;50.414;8.050;2022-07-29T12:02:58;0.40;;;0.40;;
25187;SDS011;13141;50.414;8.050;2022-07-29T12:05:36;0.30;;;0.30;;
25187;SDS011;13141;50.414;8.050;2022-07-29T12:08:04;0.40;;;0.40;;
25187;SDS011;13141;50.414;8.050;2022-07-29T12:10:35;0.30;;;0.30;;
25187;SDS011;13141;50.414;8.050;2022-07-29T12:13:01;0.30;;;0.30;;
25187;SDS011;13141;50.414;8.050;2022-07-29T12:15:28;0.40;;;0.40;;
25187;SDS011;13141;50.414;8.050;2022-07-29T12:17:53;0.30;;;0.30;;
25187;SDS011;13141;50.414;8.050;2022-07-29T12:20:26;0.30;;;0.30;;
25187;SDS011;13141;50.414;8.050;2022-07-29T12:22:53;0.30;;;0.30;;
25187;SDS011;13141;50.414;8.050;2022-07-29T12:25:20;0.35;;;0.35;;
25187;SDS011;13141;50.414;8.050;2022-07-29T12:27:47;0.50;;;0.50;;
25187;SDS011;13141;50.414;8.050;2022-07-29T12:30:14;0.40;;;0.40;;
25187;SDS011;13141;50.414;8.050;2022-07-29T12:32:46;0.30;;;0.30;;
25187;SDS011;13141;50.414;8.050;2022-07-29T12:35:17;0.30;;;0.30;;
25187;SDS011;13141;50.414;8.050;2022-07-29T12:37:47;0.40;;;0.40;;
25187;SDS011;13141;50.414;8.050;2022-07-29T12:40:14;0.32;;;0.32;;
25187;SDS011;13141;50.414;8.050;2022-07-29T12:42:41;0.30;;;0.30;;
25187;SDS011;13141;50.414;8.050;2022-07-29T12:45:36;0.40;;;0.40;;
25187;SDS011;13141;50.414;8.050;2022-07-29T12:48:03;0.40;;;0.40;;
25187;SDS011;13141;50.414;8.050;2022-07-29T12:50:29;0.40;;;0.40;;
25187;SDS011;13141;50.414;8.050;2022-07-29T12:53:07;0.50;;;0.50;;
25187;SDS011;13141;50.414;8.050;2022-07-29T12:55:38;0.37;;;0.37;;
25187;SDS011;13141;50.414;8.050;2022-07-29T12:58:04;0.40;;;0.40;;
25187;SDS011;13141;50.414;8.050;2022-07-29T13:00:30;0.40;;;0.40;;
25187;SDS011;13141;50.414;8.050;2022-07-29T13:02:56;0.30;;;0.30;;
25187;SDS011;13141;50.414;8.050;2022-07-29T13:05:23;0.30;;;0.30;;
25187;SDS011;13141;50.414;8.050;2022-07-29T13:07:49;0.30;;;0.30;;
25187;SDS011;13141;50.414;8.050;2022-07-29T13:10:20;0.32;;;0.32;;
25187;SDS011;13141;50.414;8.050;2022-07-29T13:13:05;0.20;;;0.20;;
25187;SDS011;13141;50.414;8.050;2022-07-29T13:15:39;0.30;;;0.30;;
25187;SDS011;13141;50.414;8.050;2022-07-29T13:20:53;0.30;;;0.30;;
25187;SDS011;13141;50.414;8.050;2022-07-29T13:23:19;0.30;;;0.30;;
25187;SDS011;13141;50.414;8.050;2022-07-29T13:25:45;0.30;;;0.30;;
25187;SDS011;13141;50.414;8.050;2022-07-29T13:28:10;0.30;;;0.30;;
25187;SDS011;13141;50.414;8.050;2022-07-29T13:30:36;0.28;;;0.28;;
25187;SDS011;13141;50.414;8.050;2022-07-29T13:33:02;0.40;;;0.40;;
25187;SDS011;13141;50.414;8.050;2022-07-29T13:35:28;0.30;;;0.30;;
25187;SDS011;13141;50.414;8.050;2022-07-29T13:37:54;0.20;;;0.20;;
25187;SDS011;13141;50.414;8.050;2022-07-29T13:40:20;0.32;;;0.32;;
25187;SDS011;13141;50.414;8.050;2022-07-29T13:42:46;0.40;;;0.40;;
25187;SDS011;13141;50.414;8.050;2022-07-29T13:45:11;0.30;;;0.30;;
25187;SDS011;13141;50.414;8.050;2022-07-29T13:47:37;0.30;;;0.30;;
25187;SDS011;13141;50.414;8.050;2022-07-29T13:50:04;0.25;;;0.25;;
25187;SDS011;13141;50.414;8.050;2022-07-29T13:52:30;0.30;;;0.30;;
25187;SDS011;13141;50.414;8.050;2022-07-29T13:54:56;0.20;;;0.20;;
25187;SDS011;13141;50.414;8.050;2022-07-29T13:57:21;0.20;;;0.20;;
25187;SDS011;13141;50.414;8.050;2022-07-29T13:59:47;0.30;;;0.30;;
25187;SDS011;13141;50.414;8.050;2022-07-29T14:02:13;0.32;;;0.32;;
25187;SDS011;13141;50.414;8.050;2022-07-29T14:04:38;0.35;;;0.35;;
25187;SDS011;13141;50.414;8.050;2022-07-29T14:07:05;0.30;;;0.30;;
25187;SDS011;13141;50.414;8.050;2022-07-29T14:09:31;0.30;;;0.30;;
25187;SDS011;13141;50.414;8.050;2022-07-29T14:11:56;0.30;;;0.30;;
25187;SDS011;13141;50.414;8.050;2022-07-29T14:14:22;0.20;;;0.20;;
25187;SDS011;13141;50.414;8.050;2022-07-29T14:16:48;0.30;;;0.30;;
25187;SDS011;13141;50.414;8.050;2022-07-29T14:19:13;0.28;;;0.28;;
25187;SDS011;13141;50.414;8.050;2022-07-29T14:21:39;0.30;;;0.30;;
25187;SDS011;13141;50.414;8.050;2022-07-29T14:24:05;0.20;;;0.20;;
25187;SDS011;13141;50.414;8.050;2022-07-29T14:26:31;0.17;;;0.17;;
25187;SDS011;13141;50.414;8.050;2022-07-29T14:28:57;0.25;;;0.25;;
25187;SDS011;13141;50.414;8.050;2022-07-29T14:31:22;0.20;;;0.20;;
25187;SDS011;13141;50.414;8.050;2022-07-29T14:33:48;0.20;;;0.20;;
25187;SDS011;13141;50.414;8.050;2022-07-29T14:36:13;0.30;;;0.30;;
25187;SDS011;13141;50.414;8.050;2022-07-29T14:38:39;0.20;;;0.20;;
25187;SDS011;13141;50.414;8.050;2022-07-29T14:41:05;0.20;;;0.20;;
25187;SDS011;13141;50.414;8.050;2022-07-29T14:43:31;0.20;;;0.20;;
25187;SDS011;13141;50.414;8.050;2022-07-29T14:45:57;0.20;;;0.20;;
25187;SDS011;13141;50.414;8.050;2022-07-29T14:48:23;0.30;;;0.30;;
25187;SDS011;13141;50.414;8.050;2022-07-29T14:50:48;0.30;;;0.30;;
25187;SDS011;13141;50.414;8.050;2022-07-29T14:53:14;0.20;;;0.20;;
25187;SDS011;13141;50.414;8.050;2022-07-29T14:55:40;0.20;;;0.20;;
25187;SDS011;13141;50.414;8.050;2022-07-29T14:58:06;0.20;;;0.20;;
25187;SDS011;13141;50.414;8.050;2022-07-29T15:00:32;0.30;;;0.30;;
25187;SDS011;13141;50.414;8.050;2022-07-29T15:02:59;0.20;;;0.20;;
25187;SDS011;13141;50.414;8.050;2022-07-29T15:05:25;0.20;;;0.20;;
25187;SDS011;13141;50.414;8.050;2022-07-29T15:07:51;0.30;;;0.30;;
25187;SDS011;13141;50.414;8.050;2022-07-29T15:10:16;0.20;;;0.20;;
25187;SDS011;13141;50.414;8.050;2022-07-29T15:12:42;0.22;;;0.22;;
25187;SDS011;13141;50.414;8.050;2022-07-29T15:15:08;0.20;;;0.20;;
25187;SDS011;13141;50.414;8.050;2022-07-29T15:17:34;0.30;;;0.30;;
25187;SDS011;13141;50.414;8.050;2022-07-29T15:20:00;0.30;;;0.30;;
25187;SDS011;13141;50.414;8.050;2022-07-29T15:22:25;0.20;;;0.20;;
25187;SDS011;13141;50.414;8.050;2022-07-29T15:24:51;0.20;;;0.20;;
25187;SDS011;13141;50.414;8.050;2022-07-29T15:27:17;0.20;;;0.20;;
25187;SDS011;13141;50.414;8.050;2022-07-29T15:29:43;0.30;;;0.30;;
25187;SDS011;13141;50.414;8.050;2022-07-29T15:32:09;0.20;;;0.20;;
25187;SDS011;13141;50.414;8.050;2022-07-29T15:34:35;0.32;;;0.32;;
25187;SDS011;13141;50.414;8.050;2022-07-29T15:37:01;0.20;;;0.20;;
25187;SDS011;13141;50.414;8.050;2022-07-29T15:39:27;0.37;;;0.37;;
25187;SDS011;13141;50.414;8.050;2022-07-29T15:41:53;0.30;;;0.30;;
25187;SDS011;13141;50.414;8.050;2022-07-29T15:44:18;0.30;;;0.30;;
25187;SDS011;13141;50.414;8.050;2022-07-29T15:46:45;0.30;;;0.30;;